Time;durP1;ratioP1;P1;durP2;ratioP2;P2;SDS_P1;SDS_P2;PMS_P1;PMS_P2;Temp;Humidity;BMP_temperature;BMP_pressure;BME280_temperature;BME280_humidity;BME280_pressure;Samples;Min_cycle;Max_cycle;Signal;HPM_P1;HPM_P2
2021/04/25 00:02:14;;;;;;;;;;;;;;;7.43;64.56;99934.47;5120576;27;19923;-71
2021/04/25 00:04:41;;;;;;;;;;;;;;;7.39;64.49;99932.69;5155511;27;19930;-71
2021/04/25 00:07:10;;;;;;;;;;;;;;;7.37;64.84;99929.28;5155537;27;19962;-72
2021/04/25 00:09:38;;;;;;;;;;;;;;;7.37;65.04;99931.81;5159637;27;19923;-71
2021/04/25 00:12:06;;;;;;;;;;;;;;;7.35;65.12;99931.81;5159689;27;20023;-72
2021/04/25 00:14:34;;;;;;;;;;;;;;;7.32;64.93;99918.19;5159643;27;19923;-73
2021/04/25 00:17:02;;;;;;;;;;;;;;;7.32;65.34;99920.72;5159617;27;19938;-71
2021/04/25 00:19:30;;;;;;;;;;;;;;;7.30;64.94;99918.19;5159521;27;19923;-73
2021/04/25 00:21:57;;;;;;;;;;;;;;;7.28;65.49;99919.84;5159343;27;20018;-72
2021/04/25 00:24:26;;;;;;;;;;;;;;;7.29;65.45;99908.00;5159481;27;19972;-72
2021/04/25 00:26:54;;;;;;;;;;;;;;;7.32;65.16;99905.50;5159664;27;19923;-72
2021/04/25 00:29:21;;;;;;;;;;;;;;;7.32;65.38;99902.97;5159321;27;19923;-72
2021/04/25 00:31:49;;;;;;;;;;;;;;;7.32;65.42;99902.97;5159607;27;19923;-71
2021/04/25 00:34:17;;;;;;;;;;;;;;;7.35;65.77;99906.41;5159146;27;19934;-72
2021/04/25 00:36:46;;;;;;;;;;;;;;;7.38;64.90;99900.53;5159059;27;19966;-72
2021/04/25 00:39:14;;;;;;;;;;;;;;;7.43;65.20;99906.53;5140727;27;20385;-73
2021/04/25 00:41:43;;;;;;;;;;;;;;;7.43;64.72;99898.91;5159051;27;19924;-71
2021/04/25 00:44:11;;;;;;;;;;;;;;;7.46;64.67;99903.19;5159012;27;19930;-71
2021/04/25 00:46:39;;;;;;;;;;;;;;;7.48;64.84;99894.78;5158996;27;19923;-72
2021/04/25 00:49:07;;;;;;;;;;;;;;;7.46;64.71;99893.91;5159247;27;19931;-72
2021/04/25 00:51:41;;;;;;;;;;;;;;;7.45;64.41;99889.63;5158981;27;19968;-71
2021/04/25 00:54:09;;;;;;;;;;;;;;;7.41;64.04;99892.97;5158780;27;19923;-72
2021/04/25 00:56:37;;;;;;;;;;;;;;;7.37;64.07;99893.72;5158829;27;19927;-71
2021/04/25 00:59:06;;;;;;;;;;;;;;;7.33;63.83;99887.78;5158800;27;19923;-71
2021/04/25 01:01:33;;;;;;;;;;;;;;;7.33;63.46;99881.84;5158653;27;19972;-72
2021/04/25 01:04:02;;;;;;;;;;;;;;;7.36;63.46;99872.59;5158607;27;19984;-71
2021/04/25 01:06:29;;;;;;;;;;;;;;;7.38;63.58;99875.13;5158670;27;19926;-71
2021/04/25 01:08:57;;;;;;;;;;;;;;;7.38;63.76;99872.59;5158609;27;19927;-72
2021/04/25 01:11:25;;;;;;;;;;;;;;;7.38;63.71;99870.06;5159133;27;19923;-72
2021/04/25 01:13:53;;;;;;;;;;;;;;;7.38;64.12;99870.91;5158448;27;19952;-71
2021/04/25 01:16:22;;;;;;;;;;;;;;;7.36;63.79;99866.66;5158502;27;20002;-71
2021/04/25 01:18:50;;;;;;;;;;;;;;;7.34;63.72;99863.25;5158710;27;20004;-71
2021/04/25 01:21:18;;;;;;;;;;;;;;;7.31;63.93;99863.19;5139307;27;20376;-72
2021/04/25 01:23:47;;;;;;;;;;;;;;;7.32;63.89;99865.75;5158509;27;19934;-72
2021/04/25 01:26:15;;;;;;;;;;;;;;;7.33;63.45;99861.53;5158580;27;19955;-72
2021/04/25 01:28:43;;;;;;;;;;;;;;;7.33;64.09;99866.59;5158232;27;19927;-72
2021/04/25 01:31:11;;;;;;;;;;;;;;;7.34;64.26;99863.25;5140256;27;19923;-71
2021/04/25 01:33:39;;;;;;;;;;;;;;;7.37;64.16;99858.19;5158069;27;19927;-72
2021/04/25 01:36:07;;;;;;;;;;;;;;;7.35;64.42;99860.72;5157762;27;19976;-73
2021/04/25 01:38:36;;;;;;;;;;;;;;;7.36;64.41;99859.91;5158049;27;20345;-71
2021/04/25 01:41:04;;;;;;;;;;;;;;;7.32;64.68;99854.72;5157911;27;20018;-72
2021/04/25 01:43:31;;;;;;;;;;;;;;;7.25;64.58;99863.94;5157910;27;19923;-72
2021/04/25 01:46:00;;;;;;;;;;;;;;;7.23;65.13;99862.22;5157846;27;19931;-71
2021/04/25 01:48:27;;;;;;;;;;;;;;;7.25;65.42;99858.00;5157830;27;19927;-71
2021/04/25 01:50:55;;;;;;;;;;;;;;;7.28;65.17;99852.97;5157793;27;19923;-71
2021/04/25 01:53:22;;;;;;;;;;;;;;;7.27;65.28;99849.56;5157743;27;19923;-72
2021/04/25 01:55:51;;;;;;;;;;;;;;;7.27;65.32;99851.28;5157932;27;19930;-71
2021/04/25 01:58:22;;;;;;;;;;;;;;;7.27;65.52;99841.13;5157723;27;19923;-71
2021/04/25 02:00:50;;;;;;;;;;;;;;;7.29;65.02;99847.09;5157470;27;19969;-72
2021/04/25 02:03:17;;;;;;;;;;;;;;;7.29;65.20;99845.38;5157501;27;19987;-71
2021/04/25 02:05:45;;;;;;;;;;;;;;;7.32;64.71;99844.56;5157708;27;19923;-71
2021/04/25 02:08:14;;;;;;;;;;;;;;;7.34;64.71;99840.41;5157444;27;20326;-72
2021/04/25 02:10:42;;;;;;;;;;;;;;;7.39;64.64;99836.22;5157712;27;19930;-72
2021/04/25 02:13:11;;;;;;;;;;;;;;;7.43;63.99;99843.06;5157236;27;20388;-71
2021/04/25 02:15:40;;;;;;;;;;;;;;;7.48;63.49;99846.53;5157554;27;20005;-71
2021/04/25 02:18:07;;;;;;;;;;;;;;;7.46;63.22;99838.03;5157206;27;19927;-71
2021/04/25 02:20:35;;;;;;;;;;;;;;;7.47;63.28;99839.72;5157122;27;19927;-72
2021/04/25 02:23:04;;;;;;;;;;;;;;;7.51;63.98;99838.91;5157397;27;19923;-71
2021/04/25 02:25:31;;;;;;;;;;;;;;;7.53;63.16;99839.81;5157007;27;19961;-72
2021/04/25 02:27:59;;;;;;;;;;;;;;;7.53;62.63;99828.81;5157350;27;19961;-71
2021/04/25 02:30:31;;;;;;;;;;;;;;;7.51;62.28;99826.22;5156947;27;19997;-71
2021/04/25 02:33:00;;;;;;;;;;;;;;;7.51;62.84;99821.16;5157025;27;19930;-71
2021/04/25 02:35:28;;;;;;;;;;;;;;;7.50;62.94;99819.47;5157102;27;19923;-71
2021/04/25 02:37:57;;;;;;;;;;;;;;;7.51;62.71;99816.06;5156698;27;19930;-73
2021/04/25 02:40:25;;;;;;;;;;;;;;;7.51;62.49;99815.25;5156810;27;19931;-71
2021/04/25 02:42:55;;;;;;;;;;;;;;;7.50;62.59;99811.84;5156705;27;19923;-71
2021/04/25 02:45:22;;;;;;;;;;;;;;;7.53;62.91;99813.56;5156951;27;19970;-71
2021/04/25 02:47:53;;;;;;;;;;;;;;;7.50;62.81;99819.47;5156978;27;19966;-71
2021/04/25 02:50:22;;;;;;;;;;;;;;;7.50;62.88;99811.84;5156971;27;19923;-72
2021/04/25 02:52:50;;;;;;;;;;;;;;;7.49;62.88;99817.72;5156543;27;19955;-71
2021/04/25 02:55:17;;;;;;;;;;;;;;;7.48;62.64;99810.97;5156474;27;19933;-70
2021/04/25 02:57:45;;;;;;;;;;;;;;;7.42;62.93;99805.78;5156748;27;19923;-71
2021/04/25 03:00:14;;;;;;;;;;;;;;;7.41;62.70;99804.09;5156658;27;19972;-72
2021/04/25 03:02:43;;;;;;;;;;;;;;;7.42;62.63;99813.41;5156329;27;19966;-71
2021/04/25 03:05:12;;;;;;;;;;;;;;;7.46;63.18;99802.47;5156370;27;19923;-72
2021/04/25 03:07:40;;;;;;;;;;;;;;;7.48;63.20;99808.44;5156152;27;20345;-72
2021/04/25 03:10:09;;;;;;;;;;;;;;;7.46;63.12;99804.16;5156279;27;20388;-73
2021/04/25 03:12:37;;;;;;;;;;;;;;;7.39;63.30;99801.53;5138007;27;19933;-72
2021/04/25 03:15:06;;;;;;;;;;;;;;;7.40;63.21;99812.53;5156135;27;19975;-72
2021/04/25 03:17:34;;;;;;;;;;;;;;;7.37;63.42;99802.34;5156087;27;19923;-73
2021/04/25 03:20:03;;;;;;;;;;;;;;;7.33;63.66;99810.75;5156027;27;19968;-73
2021/04/25 03:22:33;;;;;;;;;;;;;;;7.31;63.50;99812.41;5156030;27;19968;-73
2021/04/25 03:25:00;;;;;;;;;;;;;;;7.29;64.23;99806.47;5155999;27;19923;-73
2021/04/25 03:27:28;;;;;;;;;;;;;;;7.27;64.23;99808.13;5156555;27;19923;-73
2021/04/25 03:29:56;;;;;;;;;;;;;;;7.22;64.59;99802.97;5155963;27;20384;-73
2021/04/25 03:32:24;;;;;;;;;;;;;;;7.18;64.40;99797.81;5155846;27;20401;-73
2021/04/25 03:34:52;;;;;;;;;;;;;;;7.17;64.71;99793.59;5155873;27;19923;-73
2021/04/25 03:37:20;;;;;;;;;;;;;;;7.18;64.94;99791.06;5155669;27;19998;-71
2021/04/25 03:39:49;;;;;;;;;;;;;;;7.15;65.44;99797.81;5155809;27;19923;-73
2021/04/25 03:42:17;;;;;;;;;;;;;;;7.10;65.62;99799.41;5155568;27;19927;-72
2021/04/25 03:44:45;;;;;;;;;;;;;;;7.10;65.72;99794.34;5155749;27;19923;-70
2021/04/25 03:47:12;;;;;;;;;;;;;;;7.11;66.02;99801.09;5155736;27;19923;-72
2021/04/25 03:49:40;;;;;;;;;;;;;;;7.13;65.67;99796.91;5156002;27;19923;-72
2021/04/25 03:52:08;;;;;;;;;;;;;;;7.10;66.44;99792.63;5155543;27;19966;-72
2021/04/25 03:54:36;;;;;;;;;;;;;;;7.07;66.29;99790.06;5155656;27;19923;-72
2021/04/25 03:57:05;;;;;;;;;;;;;;;7.06;66.54;99793.44;5155626;27;20432;-71
2021/04/25 03:59:36;;;;;;;;;;;;;;;7.07;66.53;99791.75;5137251;27;20392;-71
2021/04/25 04:02:03;;;;;;;;;;;;;;;7.03;66.66;99790.00;5155435;27;19970;-72
2021/04/25 04:04:31;;;;;;;;;;;;;;;7.01;66.53;99784.03;5137150;27;19923;-73
2021/04/25 04:06:58;;;;;;;;;;;;;;;7.00;66.74;99784.88;5155464;27;20380;-72
2021/04/25 04:09:26;;;;;;;;;;;;;;;7.04;66.64;99791.69;5155301;27;19930;-72
2021/04/25 04:11:53;;;;;;;;;;;;;;;7.08;66.47;99793.47;5155966;27;20038;-72
2021/04/25 04:14:22;;;;;;;;;;;;;;;7.06;66.52;99784.97;5155701;27;19923;-73
2021/04/25 04:16:50;;;;;;;;;;;;;;;7.09;66.64;99790.09;5155411;27;19923;-72
2021/04/25 04:19:18;;;;;;;;;;;;;;;7.13;66.51;99797.75;5155343;27;19931;-72
2021/04/25 04:21:46;;;;;;;;;;;;;;;7.15;66.51;99785.94;5155235;27;19984;-72
2021/04/25 04:24:13;;;;;;;;;;;;;;;7.15;66.44;99788.47;5155344;27;20017;-73
2021/04/25 04:26:41;;;;;;;;;;;;;;;7.12;66.49;99785.06;5155350;27;20018;-71
2021/04/25 04:29:09;;;;;;;;;;;;;;;7.11;66.64;99788.41;5155911;27;19923;-71
2021/04/25 04:31:37;;;;;;;;;;;;;;;7.14;66.64;99788.47;5155526;27;19958;-71
2021/04/25 04:34:05;;;;;;;;;;;;;;;7.17;66.39;99784.31;5155233;27;20010;-73
2021/04/25 04:36:33;;;;;;;;;;;;;;;7.22;66.32;99786.91;5155128;27;19931;-71
2021/04/25 04:39:02;;;;;;;;;;;;;;;7.29;66.23;99779.38;5155423;27;19970;-70
2021/04/25 04:41:29;;;;;;;;;;;;;;;7.32;65.64;99779.44;5155123;27;19923;-71
2021/04/25 04:43:59;;;;;;;;;;;;;;;7.39;65.34;99782.88;5155062;27;19979;-70
2021/04/25 04:46:27;;;;;;;;;;;;;;;7.41;64.69;99783.78;5155133;27;19976;-71
2021/04/25 04:48:56;;;;;;;;;;;;;;;7.44;64.45;99783.81;5155124;27;19953;-71
2021/04/25 04:51:24;;;;;;;;;;;;;;;7.44;64.19;99778.72;5155090;27;19962;-71
2021/04/25 04:53:52;;;;;;;;;;;;;;;7.47;64.45;99788.06;5155046;27;20008;-71
2021/04/25 04:56:21;;;;;;;;;;;;;;;7.49;63.93;99781.31;5158318;27;19923;-70
2021/04/25 04:58:49;;;;;;;;;;;;;;;7.53;63.86;99783.97;5159079;27;19930;-71
2021/04/25 05:01:17;;;;;;;;;;;;;;;7.56;63.88;99778.88;5159020;27;19923;-71
2021/04/25 05:03:45;;;;;;;;;;;;;;;7.63;63.26;99778.13;5158618;27;19923;-71
2021/04/25 05:06:15;;;;;;;;;;;;;;;7.70;62.84;99774.00;5158634;27;20303;-71
2021/04/25 05:08:43;;;;;;;;;;;;;;;7.74;63.32;99773.19;5159271;27;19975;-70
2021/04/25 05:11:13;;;;;;;;;;;;;;;7.76;62.75;99766.44;5158592;27;19937;-71
2021/04/25 05:13:41;;;;;;;;;;;;;;;7.82;63.09;99761.44;5140087;27;20388;-71
2021/04/25 05:16:08;;;;;;;;;;;;;;;7.86;63.09;99769.13;5158462;27;19957;-71
2021/04/25 05:18:39;;;;;;;;;;;;;;;7.93;63.13;99765.81;5158466;27;19923;-71
2021/04/25 05:21:07;;;;;;;;;;;;;;;8.03;63.02;99772.69;5157329;27;19931;-72
2021/04/25 05:23:36;;;;;;;;;;;;;;;8.13;62.69;99767.72;5158632;27;19973;-71
2021/04/25 05:26:04;;;;;;;;;;;;;;;8.24;62.84;99766.13;5158271;27;20299;-71
2021/04/25 05:28:32;;;;;;;;;;;;;;;8.33;62.24;99762.00;5158273;27;19950;-73
2021/04/25 05:31:00;;;;;;;;;;;;;;;8.46;62.24;99757.88;5158193;27;19970;-70
2021/04/25 05:33:28;;;;;;;;;;;;;;;8.60;61.21;99761.41;5158181;27;19927;-71
2021/04/25 05:35:56;;;;;;;;;;;;;;;8.76;61.04;99758.13;5157721;27;20406;-72
2021/04/25 05:38:24;;;;;;;;;;;;;;;8.90;60.23;99743.81;5158148;27;19923;-70
2021/04/25 05:40:53;;;;;;;;;;;;;;;9.04;59.99;99744.78;5158234;27;20464;-69
2021/04/25 05:43:21;;;;;;;;;;;;;;;9.11;59.32;99746.53;5157828;27;20014;-72
2021/04/25 05:45:49;;;;;;;;;;;;;;;9.21;59.07;99750.81;5157708;27;20330;-71
2021/04/25 05:48:17;;;;;;;;;;;;;;;9.28;58.54;99747.47;5158110;27;19923;-71
2021/04/25 05:50:44;;;;;;;;;;;;;;;9.33;58.94;99750.88;5158051;27;19927;-72
2021/04/25 05:53:12;;;;;;;;;;;;;;;9.42;58.50;99753.47;5157740;27;19923;-71
2021/04/25 05:55:40;;;;;;;;;;;;;;;9.60;57.80;99746.78;5157654;27;19923;-71
2021/04/25 05:58:09;;;;;;;;;;;;;;;9.78;57.20;99742.59;5157609;27;20126;-70
2021/04/25 06:00:38;;;;;;;;;;;;;;;9.88;56.65;99748.56;5157611;27;19923;-70
2021/04/25 06:03:08;;;;;;;;;;;;;;;9.98;56.70;99745.22;5157485;27;19927;-70
2021/04/25 06:05:35;;;;;;;;;;;;;;;10.15;55.69;99741.00;5157098;27;19976;-70
2021/04/25 06:08:03;;;;;;;;;;;;;;;10.33;55.23;99738.50;5157451;27;19976;-70
2021/04/25 06:10:31;;;;;;;;;;;;;;;10.52;55.32;99737.66;5157358;27;20372;-70
2021/04/25 06:12:59;;;;;;;;;;;;;;;10.62;54.41;99741.91;5139111;27;19929;-68
2021/04/25 06:15:28;;;;;;;;;;;;;;;10.60;53.96;99735.09;5157482;27;19923;-70
2021/04/25 06:17:57;;;;;;;;;;;;;;;10.66;53.53;99732.53;5157124;27;19923;-70
2021/04/25 06:20:24;;;;;;;;;;;;;;;10.81;53.35;99736.78;5157137;27;19923;-70
2021/04/25 06:22:52;;;;;;;;;;;;;;;10.95;52.32;99728.25;5157087;27;19965;-69
2021/04/25 06:25:20;;;;;;;;;;;;;;;11.11;52.52;99726.56;5157066;27;19923;-69
2021/04/25 06:27:48;;;;;;;;;;;;;;;11.31;52.43;99729.88;5156972;27;19926;-70
2021/04/25 06:30:17;;;;;;;;;;;;;;;11.44;51.50;99727.28;5156883;27;19923;-70
2021/04/25 06:32:46;;;;;;;;;;;;;;;11.54;50.65;99725.53;5156930;27;19923;-71
2021/04/25 06:35:15;;;;;;;;;;;;;;;11.68;50.78;99726.38;5156889;27;19923;-71
2021/04/25 06:37:43;;;;;;;;;;;;;;;11.89;50.60;99730.53;5156675;27;19923;-72
2021/04/25 06:40:11;;;;;;;;;;;;;;;12.12;50.41;99732.97;5157015;27;20022;-71
2021/04/25 06:42:39;;;;;;;;;;;;;;;12.14;49.55;99726.97;5156892;27;19927;-70
2021/04/25 06:45:08;;;;;;;;;;;;;;;12.25;49.59;99722.63;5156708;27;19924;-70
2021/04/25 06:47:36;;;;;;;;;;;;;;;12.33;49.08;99723.44;5156702;27;19968;-69
2021/04/25 06:50:07;;;;;;;;;;;;;;;12.37;48.14;99724.25;5156403;27;20333;-71
2021/04/25 06:52:35;;;;;;;;;;;;;;;12.52;48.02;99719.03;5156585;27;19926;-69
2021/04/25 06:55:03;;;;;;;;;;;;;;;12.70;47.77;99711.19;5156872;27;20384;-70
2021/04/25 06:57:31;;;;;;;;;;;;;;;12.83;47.24;99710.22;5156395;27;20281;-71
2021/04/25 06:59:58;;;;;;;;;;;;;;;12.93;46.51;99709.28;5156449;27;19949;-71
2021/04/25 07:02:27;;;;;;;;;;;;;;;13.06;45.94;99712.56;5156241;27;19972;-70
2021/04/25 07:04:55;;;;;;;;;;;;;;;13.12;45.26;99718.50;5156242;27;19955;-70
2021/04/25 07:07:31;;;;;;;;;;;;;;;13.30;45.10;99707.19;5156121;27;19967;-71
2021/04/25 07:09:59;;;;;;;;;;;;;;;13.46;45.15;99713.00;5156239;27;19933;-69
2021/04/25 07:12:27;;;;;;;;;;;;;;;13.63;45.33;99713.66;5156484;27;19946;-71
2021/04/25 07:14:56;;;;;;;;;;;;;;;13.84;45.18;99705.66;5156379;27;20283;-69
2021/04/25 07:17:24;;;;;;;;;;;;;;;13.93;44.44;99715.81;5155479;27;19976;-69
2021/04/25 07:19:52;;;;;;;;;;;;;;;13.95;44.16;99708.91;5156068;27;19923;-71
2021/04/25 07:22:20;;;;;;;;;;;;;;;13.97;44.03;99700.34;5155980;27;19923;-70
2021/04/25 07:24:49;;;;;;;;;;;;;;;14.11;44.24;99695.84;5155983;27;19923;-67
2021/04/25 07:27:17;;;;;;;;;;;;;;;14.22;44.09;99703.41;5155882;27;19975;-71
2021/04/25 07:29:45;;;;;;;;;;;;;;;14.32;43.93;99705.00;5155900;27;20010;-71
2021/04/25 07:32:13;;;;;;;;;;;;;;;14.53;44.71;99701.22;5156186;27;19923;-70
2021/04/25 07:34:44;;;;;;;;;;;;;;;14.63;44.34;99708.78;5156219;27;20375;-70
2021/04/25 07:37:12;;;;;;;;;;;;;;;14.64;43.19;99697.59;5137268;27;19923;-70
2021/04/25 07:39:41;;;;;;;;;;;;;;;14.74;43.12;99704.28;5155327;27;20364;-71
2021/04/25 07:42:11;;;;;;;;;;;;;;;14.87;43.53;99709.22;5155753;27;19927;-69
2021/04/25 07:44:43;;;;;;;;;;;;;;;14.84;43.68;99698.97;5155775;27;19923;-70
2021/04/25 07:47:11;;;;;;;;;;;;;;;14.93;43.41;99703.94;5156141;27;19923;-69
2021/04/25 07:49:39;;;;;;;;;;;;;;;15.03;43.75;99702.91;5155635;27;19962;-70
2021/04/25 07:52:06;;;;;;;;;;;;;;;15.07;42.80;99702.81;5155452;27;19968;-71
2021/04/25 07:54:34;;;;;;;;;;;;;;;15.16;42.12;99702.69;5155275;27;19923;-71
2021/04/25 07:57:03;;;;;;;;;;;;;;;15.26;41.86;99698.22;5155843;27;19929;-70
2021/04/25 07:59:32;;;;;;;;;;;;;;;15.31;41.51;99710.06;5155609;27;20372;-71
2021/04/25 08:02:00;;;;;;;;;;;;;;;15.46;41.77;99698.69;5155443;27;19929;-71
2021/04/25 08:04:28;;;;;;;;;;;;;;;15.60;41.54;99700.94;5155873;27;19924;-71
2021/04/25 08:06:55;;;;;;;;;;;;;;;15.77;40.88;99701.44;5155525;27;19923;-69
2021/04/25 08:09:23;;;;;;;;;;;;;;;15.76;40.52;99700.63;5155806;27;19983;-71
2021/04/25 08:11:51;;;;;;;;;;;;;;;15.79;40.42;99690.25;5155875;27;19923;-70
2021/04/25 08:14:18;;;;;;;;;;;;;;;15.95;39.63;99696.78;5155396;27;19958;-67
2021/04/25 08:16:48;;;;;;;;;;;;;;;15.87;39.20;99698.66;5155462;27;19968;-70
2021/04/25 08:19:16;;;;;;;;;;;;;;;15.86;38.86;99699.53;5155402;27;19923;-69
2021/04/25 08:21:44;;;;;;;;;;;;;;;15.90;39.54;99678.00;5155610;27;19923;-70
2021/04/25 08:24:12;;;;;;;;;;;;;;;16.24;39.78;99682.38;5155314;27;19923;-69
2021/04/25 08:26:40;;;;;;;;;;;;;;;16.21;38.28;99682.44;5155559;27;19927;-69
2021/04/25 08:29:08;;;;;;;;;;;;;;;16.08;38.05;99682.72;5156784;27;19986;-70
2021/04/25 08:31:36;;;;;;;;;;;;;;;16.32;39.20;99688.16;5159601;27;19952;-71
2021/04/25 08:34:05;;;;;;;;;;;;;;;16.65;39.08;99685.66;5159297;27;20327;-68
2021/04/25 08:36:33;;;;;;;;;;;;;;;16.51;38.37;99681.69;5159272;27;19954;-71
2021/04/25 08:39:00;;;;;;;;;;;;;;;16.58;38.31;99683.28;5159188;27;19923;-67
2021/04/25 08:41:30;;;;;;;;;;;;;;;16.36;37.82;99687.25;5159493;27;19946;-70
2021/04/25 08:44:00;;;;;;;;;;;;;;;16.31;37.87;99683.91;5159000;27;20368;-68
2021/04/25 08:46:30;;;;;;;;;;;;;;;16.47;37.60;99673.22;5159178;27;20026;-70
2021/04/25 08:48:59;;;;;;;;;;;;;;;16.65;37.64;99679.69;5158973;27;19924;-70
2021/04/25 08:51:28;;;;;;;;;;;;;;;16.82;37.58;99676.66;5159283;27;19923;-70
2021/04/25 08:53:56;;;;;;;;;;;;;;;16.88;37.06;99672.19;5159405;27;19946;-70
2021/04/25 08:56:33;;;;;;;;;;;;;;;16.99;37.15;99670.16;5158891;27;19930;-70
2021/04/25 08:59:00;;;;;;;;;;;;;;;16.93;37.04;99670.34;5158819;27;19923;-68
2021/04/25 09:01:28;;;;;;;;;;;;;;;16.62;37.14;99665.13;5158642;27;20433;-69
2021/04/25 09:03:56;;;;;;;;;;;;;;;16.72;37.43;99676.06;5158636;27;20403;-70
2021/04/25 09:06:24;;;;;;;;;;;;;;;16.96;37.43;99664.25;5158613;27;20400;-69
2021/04/25 09:08:57;;;;;;;;;;;;;;;17.02;37.67;99670.09;5158893;27;19922;-68
2021/04/25 09:11:25;;;;;;;;;;;;;;;16.99;37.88;99670.16;5159155;27;20013;-69
2021/04/25 09:14:05;;;;;;;;;;;;;;;16.82;37.73;99669.75;5158480;27;19923;-67
2021/04/25 09:16:34;;;;;;;;;;;;;;;16.90;38.69;99664.41;5158581;27;19968;-69
2021/04/25 09:19:01;;;;;;;;;;;;;;;16.84;38.29;99662.84;5158418;27;19923;-68
2021/04/25 09:21:29;;;;;;;;;;;;;;;16.77;38.24;99663.91;5158367;27;19934;-70
2021/04/25 09:24:18;;;;;;;;;;;;;;;16.72;38.43;99670.91;5158205;27;19927;-70
2021/04/25 09:26:45;;;;;;;;;;;;;;;16.57;38.51;99673.84;5158268;27;20377;-71
2021/04/25 09:29:13;;;;;;;;;;;;;;;16.57;39.19;99676.44;5158133;27;19976;-71
2021/04/25 09:31:41;;;;;;;;;;;;;;;16.59;38.35;99682.38;5158007;27;19926;-71
2021/04/25 09:34:23;;;;;;;;;;;;;;;16.57;38.00;99672.13;5158230;27;19948;-69
2021/04/25 09:36:51;;;;;;;;;;;;;;;16.89;38.69;99673.03;5157934;27;19923;-71
2021/04/25 09:39:20;;;;;;;;;;;;;;;17.34;38.44;99677.78;5158048;27;20365;-71
2021/04/25 09:41:48;;;;;;;;;;;;;;;17.43;37.07;99668.94;5157500;27;19923;-69
2021/04/25 09:44:26;;;;;;;;;;;;;;;17.41;36.62;99661.25;5157923;27;19970;-68
2021/04/25 09:46:55;;;;;;;;;;;;;;;17.27;36.71;99665.97;5158260;27;20014;-70
2021/04/25 09:49:34;;;;;;;;;;;;;;;17.25;37.26;99670.28;5157647;27;19923;-70
2021/04/25 09:52:02;;;;;;;;;;;;;;;17.40;38.02;99667.28;5157850;27;19929;-70
2021/04/25 09:54:31;;;;;;;;;;;;;;;16.90;36.90;99672.97;5157739;27;19923;-67
2021/04/25 09:56:59;;;;;;;;;;;;;;;16.62;37.35;99675.44;5157918;27;19930;-70
2021/04/25 09:59:27;;;;;;;;;;;;;;;16.45;37.61;99671.56;5157650;27;19923;-67
2021/04/25 10:02:03;;;;;;;;;;;;;;;16.15;37.75;99677.44;5157790;27;19946;-69
2021/04/25 10:04:31;;;;;;;;;;;;;;;16.18;38.12;99672.19;5157664;27;19923;-71
2021/04/25 10:07:00;;;;;;;;;;;;;;;16.32;38.07;99677.88;5157701;27;19977;-69
2021/04/25 10:09:28;;;;;;;;;;;;;;;16.39;38.19;99674.25;5157341;27;19927;-70
2021/04/25 10:11:58;;;;;;;;;;;;;;;16.56;37.95;99677.31;5157384;27;19927;-70
2021/04/25 10:14:26;;;;;;;;;;;;;;;16.58;38.02;99673.00;5157328;27;19927;-70
2021/04/25 10:16:54;;;;;;;;;;;;;;;16.50;38.01;99680.00;5157334;27;19922;-68
2021/04/25 10:19:23;;;;;;;;;;;;;;;16.35;37.68;99678.66;5157505;27;19927;-68
2021/04/25 10:21:51;;;;;;;;;;;;;;;16.14;37.81;99675.75;5157208;27;20437;-68
2021/04/25 10:24:20;;;;;;;;;;;;;;;16.47;38.87;99669.78;5157109;27;20392;-71
2021/04/25 10:26:52;;;;;;;;;;;;;;;16.86;37.87;99668.81;5157055;27;19958;-69
2021/04/25 10:29:27;;;;;;;;;;;;;;;17.20;37.96;99663.59;5157103;27;20010;-71
2021/04/25 10:31:55;;;;;;;;;;;;;;;17.46;37.87;99665.41;5157051;27;19923;-71
2021/04/25 10:34:23;;;;;;;;;;;;;;;17.75;39.23;99657.69;5156960;27;19930;-70
2021/04/25 10:36:58;;;;;;;;;;;;;;;17.47;37.48;99667.13;5156662;27;19931;-70
2021/04/25 10:39:49;;;;;;;;;;;;;;;17.43;37.30;99656.03;5138695;27;19984;-70
2021/04/25 10:42:26;;;;;;;;;;;;;;;17.37;37.55;99661.38;5151819;27;19955;-71
2021/04/25 10:45:17;;;;;;;;;;;;;;;17.20;37.88;99659.25;5156767;27;20006;-71
2021/04/25 10:47:47;;;;;;;;;;;;;;;17.05;38.09;99664.84;5157046;27;19923;-70
2021/04/25 10:50:26;;;;;;;;;;;;;;;16.89;37.94;99668.75;5156656;27;19930;-69
2021/04/25 10:53:13;;;;;;;;;;;;;;;16.71;38.21;99664.03;5155867;27;19987;-71
2021/04/25 10:55:41;;;;;;;;;;;;;;;16.70;38.30;99672.66;5156462;27;19987;-70
2021/04/25 10:58:26;;;;;;;;;;;;;;;16.77;39.28;99665.63;5156499;27;19968;-72
2021/04/25 11:00:54;;;;;;;;;;;;;;;16.55;38.47;99663.59;5156762;27;19962;-69
2021/04/25 11:03:36;;;;;;;;;;;;;;;16.35;38.67;99670.06;5156336;27;20364;-70
2021/04/25 11:06:23;;;;;;;;;;;;;;;16.35;39.17;99670.94;5156559;27;19937;-70
2021/04/25 11:08:51;;;;;;;;;;;;;;;16.67;38.83;99668.44;5156313;27;19923;-69
2021/04/25 11:11:33;;;;;;;;;;;;;;;16.91;38.23;99671.25;5137849;27;19959;-70
2021/04/25 11:14:01;;;;;;;;;;;;;;;17.07;37.99;99678.53;5156243;27;20017;-70
2021/04/25 11:16:29;;;;;;;;;;;;;;;16.94;37.43;99677.16;5156081;27;19935;-69
2021/04/25 11:19:00;;;;;;;;;;;;;;;16.94;38.02;99672.00;5156089;27;20302;-71
2021/04/25 11:21:46;;;;;;;;;;;;;;;17.26;38.62;99669.41;5156134;27;19975;-70
2021/04/25 11:24:24;;;;;;;;;;;;;;;17.53;37.05;99672.13;5155967;27;19930;-71
2021/04/25 11:26:55;;;;;;;;;;;;;;;17.99;37.55;99673.31;5156337;27;19923;-72
2021/04/25 11:29:43;;;;;;;;;;;;;;;18.30;36.83;99678.34;5120669;27;19923;-71
2021/04/25 11:32:23;;;;;;;;;;;;;;;18.67;37.11;99667.66;5155853;27;20025;-72
2021/04/25 11:35:00;;;;;;;;;;;;;;;19.06;37.08;99680.97;5156439;27;19923;-72
2021/04/25 11:37:28;;;;;;;;;;;;;;;18.95;36.41;99670.16;5155609;27;19923;-71
2021/04/25 11:39:56;;;;;;;;;;;;;;;18.65;35.87;99669.44;5156040;27;20436;-72
2021/04/25 11:42:26;;;;;;;;;;;;;;;18.68;36.26;99670.22;5155744;27;20373;-73
2021/04/25 11:44:54;;;;;;;;;;;;;;;18.86;36.66;99667.91;5155687;27;19923;-72
2021/04/25 11:47:24;;;;;;;;;;;;;;;19.11;36.34;99679.06;5155977;27;19923;-71
2021/04/25 11:49:53;;;;;;;;;;;;;;;19.11;35.77;99679.06;5155671;27;19923;-71
2021/04/25 11:52:21;;;;;;;;;;;;;;;19.23;35.96;99683.81;5155572;27;20441;-72
2021/04/25 11:54:59;;;;;;;;;;;;;;;19.50;35.88;99682.00;5155685;27;19995;-70
2021/04/25 11:57:29;;;;;;;;;;;;;;;19.25;34.67;99682.00;5155911;27;19930;-70
2021/04/25 11:59:57;;;;;;;;;;;;;;;18.95;33.83;99683.09;5155619;27;19979;-69
2021/04/25 12:02:25;;;;;;;;;;;;;;;18.52;33.82;99683.69;5155807;27;19946;-70
2021/04/25 12:04:54;;;;;;;;;;;;;;;18.60;34.38;99685.13;5158491;27;20299;-71
2021/04/25 12:07:32;;;;;;;;;;;;;;;18.64;33.81;99678.94;5159680;27;20372;-70
2021/04/25 12:10:01;;;;;;;;;;;;;;;18.95;34.30;99683.09;5159843;27;19923;-72
2021/04/25 12:12:30;;;;;;;;;;;;;;;19.11;33.78;99681.66;5159751;27;19923;-69
2021/04/25 12:15:01;;;;;;;;;;;;;;;19.00;33.21;99688.94;5159730;27;19923;-70
2021/04/25 12:17:32;;;;;;;;;;;;;;;18.78;33.27;99690.56;5159762;27;20008;-70
2021/04/25 12:20:01;;;;;;;;;;;;;;;18.48;33.20;99685.53;5159876;27;19934;-72
2021/04/25 12:22:29;;;;;;;;;;;;;;;18.41;33.71;99681.41;5140873;27;19930;-69
2021/04/25 12:24:57;;;;;;;;;;;;;;;18.57;34.65;99687.78;5159442;27;19923;-71
2021/04/25 12:27:25;;;;;;;;;;;;;;;18.84;34.24;99698.09;5159483;27;19923;-70
2021/04/25 12:29:54;;;;;;;;;;;;;;;18.62;32.95;99685.91;5159470;27;19930;-68
2021/04/25 12:32:22;;;;;;;;;;;;;;;17.96;32.71;99677.69;5159378;27;19952;-69
2021/04/25 12:34:57;;;;;;;;;;;;;;;17.39;33.30;99681.09;5159576;27;19931;-69
2021/04/25 12:37:35;;;;;;;;;;;;;;;17.07;33.86;99682.84;5158969;27;19923;-70
2021/04/25 12:40:04;;;;;;;;;;;;;;;16.95;33.84;99678.88;5159507;27;19934;-69
2021/04/25 12:42:31;;;;;;;;;;;;;;;16.91;33.71;99685.00;5159088;27;20013;-69
2021/04/25 12:45:00;;;;;;;;;;;;;;;16.79;34.10;99682.75;5159060;27;19923;-69
2021/04/25 12:47:28;;;;;;;;;;;;;;;16.65;34.09;99684.84;5158978;27;19968;-70
2021/04/25 12:49:57;;;;;;;;;;;;;;;16.76;34.67;99687.97;5158774;27;19968;-70
2021/04/25 12:52:35;;;;;;;;;;;;;;;16.76;34.88;99687.97;5159023;27;19975;-69
2021/04/25 12:55:04;;;;;;;;;;;;;;;16.67;35.01;99683.06;5158959;27;19931;-71
2021/04/25 12:57:32;;;;;;;;;;;;;;;16.86;35.57;99684.28;5159275;27;19968;-72
2021/04/25 13:00:00;;;;;;;;;;;;;;;17.01;35.23;99683.84;5158820;27;19934;-71
2021/04/25 13:02:32;;;;;;;;;;;;;;;17.35;34.68;99679.47;5158713;27;19930;-71